sensor_id;sensor_type;location;lat;lon;timestamp;temperature;humidity
8778;DHT22;4425;50.872;4.712;2024-03-22T00:00:47;12.80;99.90
8778;DHT22;4425;50.872;4.712;2024-03-22T00:03:14;12.80;99.90
8778;DHT22;4425;50.872;4.712;2024-03-22T00:05:40;12.70;99.90
8778;DHT22;4425;50.872;4.712;2024-03-22T00:08:07;12.70;99.90
8778;DHT22;4425;50.872;4.712;2024-03-22T00:10:34;12.80;99.90
8778;DHT22;4425;50.872;4.712;2024-03-22T00:13:01;12.70;99.90
8778;DHT22;4425;50.872;4.712;2024-03-22T00:15:29;12.80;99.90
8778;DHT22;4425;50.872;4.712;2024-03-22T00:17:56;12.80;99.90
8778;DHT22;4425;50.872;4.712;2024-03-22T00:20:22;12.70;99.90
8778;DHT22;4425;50.872;4.712;2024-03-22T00:22:49;12.70;99.90
8778;DHT22;4425;50.872;4.712;2024-03-22T00:25:15;12.70;99.90
8778;DHT22;4425;50.872;4.712;2024-03-22T00:27:42;12.70;99.90
8778;DHT22;4425;50.872;4.712;2024-03-22T00:30:08;12.80;99.90
8778;DHT22;4425;50.872;4.712;2024-03-22T00:32:37;12.70;99.90
8778;DHT22;4425;50.872;4.712;2024-03-22T00:35:03;12.70;99.90
8778;DHT22;4425;50.872;4.712;2024-03-22T00:37:30;12.70;99.90
8778;DHT22;4425;50.872;4.712;2024-03-22T00:39:57;12.70;99.90
8778;DHT22;4425;50.872;4.712;2024-03-22T00:42:23;12.60;99.90
8778;DHT22;4425;50.872;4.712;2024-03-22T00:44:49;12.70;99.90
8778;DHT22;4425;50.872;4.712;2024-03-22T00:47:16;12.70;99.90
8778;DHT22;4425;50.872;4.712;2024-03-22T00:49:44;12.70;99.90
8778;DHT22;4425;50.872;4.712;2024-03-22T00:52:10;12.70;99.90
8778;DHT22;4425;50.872;4.712;2024-03-22T00:54:36;12.70;99.90
8778;DHT22;4425;50.872;4.712;2024-03-22T00:57:05;12.80;99.90
8778;DHT22;4425;50.872;4.712;2024-03-22T00:59:30;12.80;99.90
8778;DHT22;4425;50.872;4.712;2024-03-22T01:01:57;12.80;99.90
8778;DHT22;4425;50.872;4.712;2024-03-22T01:04:24;12.80;99.90
8778;DHT22;4425;50.872;4.712;2024-03-22T01:06:52;12.80;99.90
8778;DHT22;4425;50.872;4.712;2024-03-22T01:09:18;12.80;99.90
8778;DHT22;4425;50.872;4.712;2024-03-22T01:11:45;12.70;99.90
8778;DHT22;4425;50.872;4.712;2024-03-22T01:14:12;12.70;99.90
8778;DHT22;4425;50.872;4.712;2024-03-22T01:16:38;12.80;99.90
8778;DHT22;4425;50.872;4.712;2024-03-22T01:19:05;12.70;99.90
8778;DHT22;4425;50.872;4.712;2024-03-22T01:21:31;12.70;99.90
8778;DHT22;4425;50.872;4.712;2024-03-22T01:23:59;12.70;99.90
8778;DHT22;4425;50.872;4.712;2024-03-22T01:26:25;12.70;99.90
8778;DHT22;4425;50.872;4.712;2024-03-22T01:28:52;12.60;99.90
8778;DHT22;4425;50.872;4.712;2024-03-22T01:31:18;12.60;99.90
8778;DHT22;4425;50.872;4.712;2024-03-22T01:33:45;12.60;99.90
8778;DHT22;4425;50.872;4.712;2024-03-22T01:36:11;12.60;99.90
8778;DHT22;4425;50.872;4.712;2024-03-22T01:38:37;12.60;99.90
8778;DHT22;4425;50.872;4.712;2024-03-22T01:41:05;12.50;99.90
8778;DHT22;4425;50.872;4.712;2024-03-22T01:43:32;12.50;99.90
8778;DHT22;4425;50.872;4.712;2024-03-22T01:45:58;12.50;99.90
8778;DHT22;4425;50.872;4.712;2024-03-22T01:48:28;12.50;99.90
8778;DHT22;4425;50.872;4.712;2024-03-22T01:50:54;12.50;99.90
8778;DHT22;4425;50.872;4.712;2024-03-22T01:53:22;12.40;99.90
8778;DHT22;4425;50.872;4.712;2024-03-22T01:55:49;12.40;99.90
8778;DHT22;4425;50.872;4.712;2024-03-22T01:58:18;12.50;99.90
8778;DHT22;4425;50.872;4.712;2024-03-22T02:00:44;12.50;99.90
8778;DHT22;4425;50.872;4.712;2024-03-22T02:03:11;12.50;99.90
8778;DHT22;4425;50.872;4.712;2024-03-22T02:05:37;12.50;99.90
8778;DHT22;4425;50.872;4.712;2024-03-22T02:08:05;12.50;99.90
8778;DHT22;4425;50.872;4.712;2024-03-22T02:10:31;12.40;99.90
8778;DHT22;4425;50.872;4.712;2024-03-22T02:12:58;12.40;99.90
8778;DHT22;4425;50.872;4.712;2024-03-22T02:15:26;12.30;99.90
8778;DHT22;4425;50.872;4.712;2024-03-22T02:17:53;12.30;99.90
8778;DHT22;4425;50.872;4.712;2024-03-22T02:20:18;12.30;99.90
8778;DHT22;4425;50.872;4.712;2024-03-22T02:22:45;12.30;99.90
8778;DHT22;4425;50.872;4.712;2024-03-22T02:25:13;12.20;99.90
8778;DHT22;4425;50.872;4.712;2024-03-22T02:27:39;12.20;99.90
8778;DHT22;4425;50.872;4.712;2024-03-22T02:30:07;12.10;99.90
8778;DHT22;4425;50.872;4.712;2024-03-22T02:32:33;12.10;99.90
8778;DHT22;4425;50.872;4.712;2024-03-22T02:35:00;12.00;99.90
8778;DHT22;4425;50.872;4.712;2024-03-22T02:37:25;11.90;99.90
8778;DHT22;4425;50.872;4.712;2024-03-22T02:39:53;12.00;99.90
8778;DHT22;4425;50.872;4.712;2024-03-22T02:42:21;12.00;99.90
8778;DHT22;4425;50.872;4.712;2024-03-22T02:44:48;12.00;99.90
8778;DHT22;4425;50.872;4.712;2024-03-22T02:47:13;12.00;99.90
8778;DHT22;4425;50.872;4.712;2024-03-22T02:49:41;12.00;99.90
8778;DHT22;4425;50.872;4.712;2024-03-22T02:52:07;12.00;99.90
8778;DHT22;4425;50.872;4.712;2024-03-22T02:54:34;12.00;99.90
8778;DHT22;4425;50.872;4.712;2024-03-22T02:57:00;12.00;99.90
8778;DHT22;4425;50.872;4.712;2024-03-22T02:59:29;12.00;99.90
8778;DHT22;4425;50.872;4.712;2024-03-22T03:01:55;12.00;99.90
8778;DHT22;4425;50.872;4.712;2024-03-22T03:04:21;12.00;99.90
8778;DHT22;4425;50.872;4.712;2024-03-22T03:06:47;12.00;99.90
8778;DHT22;4425;50.872;4.712;2024-03-22T03:09:14;12.10;99.90
8778;DHT22;4425;50.872;4.712;2024-03-22T03:11:40;12.10;99.90
8778;DHT22;4425;50.872;4.712;2024-03-22T03:14:07;12.10;99.90
8778;DHT22;4425;50.872;4.712;2024-03-22T03:16:35;12.10;99.90
8778;DHT22;4425;50.872;4.712;2024-03-22T03:19:02;12.20;99.90
8778;DHT22;4425;50.872;4.712;2024-03-22T03:21:27;12.20;99.90
8778;DHT22;4425;50.872;4.712;2024-03-22T03:23:54;12.20;99.90
8778;DHT22;4425;50.872;4.712;2024-03-22T03:26:20;12.10;99.90
8778;DHT22;4425;50.872;4.712;2024-03-22T03:28:47;12.10;99.90
8778;DHT22;4425;50.872;4.712;2024-03-22T03:31:13;12.10;99.90
8778;DHT22;4425;50.872;4.712;2024-03-22T03:33:41;12.20;99.90
8778;DHT22;4425;50.872;4.712;2024-03-22T03:36:07;12.30;99.90
8778;DHT22;4425;50.872;4.712;2024-03-22T03:38:34;12.20;99.90
8778;DHT22;4425;50.872;4.712;2024-03-22T03:41:03;12.20;99.90
8778;DHT22;4425;50.872;4.712;2024-03-22T03:43:30;12.30;99.90
8778;DHT22;4425;50.872;4.712;2024-03-22T03:45:56;12.30;99.90
8778;DHT22;4425;50.872;4.712;2024-03-22T03:48:23;12.40;99.90
8778;DHT22;4425;50.872;4.712;2024-03-22T03:50:54;12.30;99.90
8778;DHT22;4425;50.872;4.712;2024-03-22T03:53:24;12.40;99.90
8778;DHT22;4425;50.872;4.712;2024-03-22T03:55:50;12.30;99.90
8778;DHT22;4425;50.872;4.712;2024-03-22T03:58:17;12.20;99.90
8778;DHT22;4425;50.872;4.712;2024-03-22T04:00:43;12.20;99.90
8778;DHT22;4425;50.872;4.712;2024-03-22T04:03:10;12.20;99.90
8778;DHT22;4425;50.872;4.712;2024-03-22T04:05:36;12.20;99.90
8778;DHT22;4425;50.872;4.712;2024-03-22T04:08:05;12.20;99.90
8778;DHT22;4425;50.872;4.712;2024-03-22T04:10:31;12.10;99.90
8778;DHT22;4425;50.872;4.712;2024-03-22T04:12:58;12.10;99.90
8778;DHT22;4425;50.872;4.712;2024-03-22T04:15:24;12.10;99.90
8778;DHT22;4425;50.872;4.712;2024-03-22T04:17:51;12.20;99.90
8778;DHT22;4425;50.872;4.712;2024-03-22T04:20:17;12.20;99.90
8778;DHT22;4425;50.872;4.712;2024-03-22T04:22:43;12.20;99.90
8778;DHT22;4425;50.872;4.712;2024-03-22T04:25:11;12.20;99.90
8778;DHT22;4425;50.872;4.712;2024-03-22T04:27:38;12.20;99.90
8778;DHT22;4425;50.872;4.712;2024-03-22T04:30:04;12.20;99.90
8778;DHT22;4425;50.872;4.712;2024-03-22T04:32:31;12.10;99.90
8778;DHT22;4425;50.872;4.712;2024-03-22T04:34:57;12.20;99.90
8778;DHT22;4425;50.872;4.712;2024-03-22T04:37:24;12.20;99.90
8778;DHT22;4425;50.872;4.712;2024-03-22T04:39:51;12.10;99.90
8778;DHT22;4425;50.872;4.712;2024-03-22T04:42:19;12.20;99.90
8778;DHT22;4425;50.872;4.712;2024-03-22T04:44:46;12.20;99.90
8778;DHT22;4425;50.872;4.712;2024-03-22T04:47:12;12.20;99.90
8778;DHT22;4425;50.872;4.712;2024-03-22T04:49:39;12.30;99.90
8778;DHT22;4425;50.872;4.712;2024-03-22T04:52:05;12.20;99.90
8778;DHT22;4425;50.872;4.712;2024-03-22T04:54:32;12.30;99.90
8778;DHT22;4425;50.872;4.712;2024-03-22T04:56:58;12.30;99.90
8778;DHT22;4425;50.872;4.712;2024-03-22T04:59:26;12.30;99.90
8778;DHT22;4425;50.872;4.712;2024-03-22T05:01:52;12.30;99.90
8778;DHT22;4425;50.872;4.712;2024-03-22T05:04:19;12.30;99.90
8778;DHT22;4425;50.872;4.712;2024-03-22T05:06:45;12.20;99.90
8778;DHT22;4425;50.872;4.712;2024-03-22T05:09:12;12.20;99.90
8778;DHT22;4425;50.872;4.712;2024-03-22T05:11:38;12.30;99.90
8778;DHT22;4425;50.872;4.712;2024-03-22T05:14:05;12.30;99.90
8778;DHT22;4425;50.872;4.712;2024-03-22T05:16:32;12.30;99.90
8778;DHT22;4425;50.872;4.712;2024-03-22T05:18:59;12.40;99.90
8778;DHT22;4425;50.872;4.712;2024-03-22T05:21:25;12.40;99.90
8778;DHT22;4425;50.872;4.712;2024-03-22T05:23:51;12.20;99.90
8778;DHT22;4425;50.872;4.712;2024-03-22T05:26:17;12.30;99.90
8778;DHT22;4425;50.872;4.712;2024-03-22T05:28:46;12.30;99.90
8778;DHT22;4425;50.872;4.712;2024-03-22T05:31:12;12.40;99.90
8778;DHT22;4425;50.872;4.712;2024-03-22T05:33:40;12.30;99.90
8778;DHT22;4425;50.872;4.712;2024-03-22T05:36:06;12.30;99.90
8778;DHT22;4425;50.872;4.712;2024-03-22T05:38:33;12.30;99.90
8778;DHT22;4425;50.872;4.712;2024-03-22T05:41:03;12.30;99.90
8778;DHT22;4425;50.872;4.712;2024-03-22T05:43:30;12.20;99.90
8778;DHT22;4425;50.872;4.712;2024-03-22T05:45:56;12.20;99.90
8778;DHT22;4425;50.872;4.712;2024-03-22T05:48:23;12.30;99.90
8778;DHT22;4425;50.872;4.712;2024-03-22T05:50:51;12.20;99.90
8778;DHT22;4425;50.872;4.712;2024-03-22T05:53:18;12.20;99.90
8778;DHT22;4425;50.872;4.712;2024-03-22T05:55:44;12.30;99.90
8778;DHT22;4425;50.872;4.712;2024-03-22T05:58:10;12.30;99.90
8778;DHT22;4425;50.872;4.712;2024-03-22T06:00:36;12.30;99.90
8778;DHT22;4425;50.872;4.712;2024-03-22T06:03:04;12.30;99.90
8778;DHT22;4425;50.872;4.712;2024-03-22T06:05:30;12.30;99.90
8778;DHT22;4425;50.872;4.712;2024-03-22T06:07:58;12.30;99.90
8778;DHT22;4425;50.872;4.712;2024-03-22T06:10:24;12.30;99.90
8778;DHT22;4425;50.872;4.712;2024-03-22T06:12:51;12.30;99.90
8778;DHT22;4425;50.872;4.712;2024-03-22T06:15:17;12.30;99.90
8778;DHT22;4425;50.872;4.712;2024-03-22T06:17:44;12.30;99.90
8778;DHT22;4425;50.872;4.712;2024-03-22T06:20:11;12.30;99.90
8778;DHT22;4425;50.872;4.712;2024-03-22T06:22:38;12.30;99.90
8778;DHT22;4425;50.872;4.712;2024-03-22T06:25:06;12.40;99.90
8778;DHT22;4425;50.872;4.712;2024-03-22T06:27:33;12.40;99.90
8778;DHT22;4425;50.872;4.712;2024-03-22T06:29:59;12.40;99.90
8778;DHT22;4425;50.872;4.712;2024-03-22T06:32:26;12.40;99.90
8778;DHT22;4425;50.872;4.712;2024-03-22T06:34:52;12.40;99.90
8778;DHT22;4425;50.872;4.712;2024-03-22T06:37:19;12.40;99.90
8778;DHT22;4425;50.872;4.712;2024-03-22T06:39:45;12.40;99.90
8778;DHT22;4425;50.872;4.712;2024-03-22T06:42:13;12.40;99.90
8778;DHT22;4425;50.872;4.712;2024-03-22T06:44:39;12.40;99.90
8778;DHT22;4425;50.872;4.712;2024-03-22T06:47:06;12.40;99.90
8778;DHT22;4425;50.872;4.712;2024-03-22T06:49:32;12.40;99.90
8778;DHT22;4425;50.872;4.712;2024-03-22T06:51:59;12.30;99.90
8778;DHT22;4425;50.872;4.712;2024-03-22T06:54:25;12.30;99.90
8778;DHT22;4425;50.872;4.712;2024-03-22T06:56:52;12.20;99.90
8778;DHT22;4425;50.872;4.712;2024-03-22T06:59:20;12.30;99.90
8778;DHT22;4425;50.872;4.712;2024-03-22T07:01:47;12.30;99.90
8778;DHT22;4425;50.872;4.712;2024-03-22T07:04:13;12.30;99.90
8778;DHT22;4425;50.872;4.712;2024-03-22T07:06:40;12.40;99.90
8778;DHT22;4425;50.872;4.712;2024-03-22T07:09:07;12.30;99.90
8778;DHT22;4425;50.872;4.712;2024-03-22T07:11:34;12.40;99.90
8778;DHT22;4425;50.872;4.712;2024-03-22T07:14:00;12.40;99.90
8778;DHT22;4425;50.872;4.712;2024-03-22T07:16:29;12.50;99.90
8778;DHT22;4425;50.872;4.712;2024-03-22T07:18:55;12.40;99.90
8778;DHT22;4425;50.872;4.712;2024-03-22T07:21:22;12.40;99.90
8778;DHT22;4425;50.872;4.712;2024-03-22T07:23:47;12.30;99.90
8778;DHT22;4425;50.872;4.712;2024-03-22T07:26:14;12.20;99.90
8778;DHT22;4425;50.872;4.712;2024-03-22T07:28:40;12.10;99.90
8778;DHT22;4425;50.872;4.712;2024-03-22T07:31:07;12.00;99.90
8778;DHT22;4425;50.872;4.712;2024-03-22T07:33:36;12.10;99.90
8778;DHT22;4425;50.872;4.712;2024-03-22T07:36:05;11.90;99.90
8778;DHT22;4425;50.872;4.712;2024-03-22T07:38:31;11.90;99.90
8778;DHT22;4425;50.872;4.712;2024-03-22T07:40:58;11.80;99.90
8778;DHT22;4425;50.872;4.712;2024-03-22T07:43:24;11.90;99.90
8778;DHT22;4425;50.872;4.712;2024-03-22T07:45:51;12.00;99.90
8778;DHT22;4425;50.872;4.712;2024-03-22T07:48:17;12.10;99.90
8778;DHT22;4425;50.872;4.712;2024-03-22T07:50:45;11.90;99.90
8778;DHT22;4425;50.872;4.712;2024-03-22T07:53:11;11.90;99.90
8778;DHT22;4425;50.872;4.712;2024-03-22T07:55:40;12.00;99.90
8778;DHT22;4425;50.872;4.712;2024-03-22T07:58:06;12.00;99.90
8778;DHT22;4425;50.872;4.712;2024-03-22T08:00:33;12.00;99.90
8778;DHT22;4425;50.872;4.712;2024-03-22T08:02:59;12.10;99.90
8778;DHT22;4425;50.872;4.712;2024-03-22T08:05:26;12.10;99.90
8778;DHT22;4425;50.872;4.712;2024-03-22T08:07:53;12.10;99.90
8778;DHT22;4425;50.872;4.712;2024-03-22T08:10:20;12.10;99.90
8778;DHT22;4425;50.872;4.712;2024-03-22T08:12:46;12.10;99.90
8778;DHT22;4425;50.872;4.712;2024-03-22T08:15:14;12.10;99.90
8778;DHT22;4425;50.872;4.712;2024-03-22T08:17:41;12.10;99.90
8778;DHT22;4425;50.872;4.712;2024-03-22T08:20:22;12.20;99.90
8778;DHT22;4425;50.872;4.712;2024-03-22T08:22:49;12.30;99.90
8778;DHT22;4425;50.872;4.712;2024-03-22T08:25:17;12.40;99.90
8778;DHT22;4425;50.872;4.712;2024-03-22T08:27:46;12.40;99.90
8778;DHT22;4425;50.872;4.712;2024-03-22T08:30:13;12.50;99.90
8778;DHT22;4425;50.872;4.712;2024-03-22T08:32:40;12.30;99.90
8778;DHT22;4425;50.872;4.712;2024-03-22T08:35:06;12.40;99.90
8778;DHT22;4425;50.872;4.712;2024-03-22T08:37:34;12.40;99.90
8778;DHT22;4425;50.872;4.712;2024-03-22T08:40:00;12.40;99.90
8778;DHT22;4425;50.872;4.712;2024-03-22T08:42:32;12.50;99.90
8778;DHT22;4425;50.872;4.712;2024-03-22T08:44:58;12.60;99.90
8778;DHT22;4425;50.872;4.712;2024-03-22T08:47:25;12.80;99.90
8778;DHT22;4425;50.872;4.712;2024-03-22T08:49:51;12.90;99.90
8778;DHT22;4425;50.872;4.712;2024-03-22T08:52:18;12.80;99.90
8778;DHT22;4425;50.872;4.712;2024-03-22T08:54:44;12.80;99.90
8778;DHT22;4425;50.872;4.712;2024-03-22T08:57:12;12.80;99.90
8778;DHT22;4425;50.872;4.712;2024-03-22T08:59:39;12.90;99.90
8778;DHT22;4425;50.872;4.712;2024-03-22T09:02:17;13.00;99.90
8778;DHT22;4425;50.872;4.712;2024-03-22T09:04:48;13.10;99.90
8778;DHT22;4425;50.872;4.712;2024-03-22T09:07:15;13.10;99.90
8778;DHT22;4425;50.872;4.712;2024-03-22T09:09:41;13.10;99.90
8778;DHT22;4425;50.872;4.712;2024-03-22T09:12:08;13.20;99.90
8778;DHT22;4425;50.872;4.712;2024-03-22T09:14:34;13.20;99.90
8778;DHT22;4425;50.872;4.712;2024-03-22T09:17:03;13.10;99.90
8778;DHT22;4425;50.872;4.712;2024-03-22T09:19:29;13.00;99.90
8778;DHT22;4425;50.872;4.712;2024-03-22T09:21:56;12.90;99.90
8778;DHT22;4425;50.872;4.712;2024-03-22T09:24:21;12.90;99.90
8778;DHT22;4425;50.872;4.712;2024-03-22T09:26:48;13.00;99.90
8778;DHT22;4425;50.872;4.712;2024-03-22T09:29:14;13.00;99.90
8778;DHT22;4425;50.872;4.712;2024-03-22T09:31:42;13.10;99.90
8778;DHT22;4425;50.872;4.712;2024-03-22T09:34:12;13.30;99.90
8778;DHT22;4425;50.872;4.712;2024-03-22T09:36:41;13.30;99.90
8778;DHT22;4425;50.872;4.712;2024-03-22T09:39:07;13.30;99.90
8778;DHT22;4425;50.872;4.712;2024-03-22T09:41:42;13.30;99.90
8778;DHT22;4425;50.872;4.712;2024-03-22T09:44:13;13.40;99.90
8778;DHT22;4425;50.872;4.712;2024-03-22T09:46:42;13.60;99.90
8778;DHT22;4425;50.872;4.712;2024-03-22T09:49:10;13.40;99.90
8778;DHT22;4425;50.872;4.712;2024-03-22T09:51:39;13.50;99.90
8778;DHT22;4425;50.872;4.712;2024-03-22T09:54:09;13.50;99.90
8778;DHT22;4425;50.872;4.712;2024-03-22T09:56:38;13.40;99.90
8778;DHT22;4425;50.872;4.712;2024-03-22T09:59:04;13.50;99.90
8778;DHT22;4425;50.872;4.712;2024-03-22T10:01:33;13.50;99.90
8778;DHT22;4425;50.872;4.712;2024-03-22T10:04:00;13.50;99.90
8778;DHT22;4425;50.872;4.712;2024-03-22T10:06:29;13.60;99.90
8778;DHT22;4425;50.872;4.712;2024-03-22T10:08:58;13.60;99.90
8778;DHT22;4425;50.872;4.712;2024-03-22T10:11:26;13.70;99.90
8778;DHT22;4425;50.872;4.712;2024-03-22T10:13:52;13.70;99.90
8778;DHT22;4425;50.872;4.712;2024-03-22T10:16:21;13.70;99.90
8778;DHT22;4425;50.872;4.712;2024-03-22T10:18:47;13.80;99.90
8778;DHT22;4425;50.872;4.712;2024-03-22T10:21:17;13.80;99.90
8778;DHT22;4425;50.872;4.712;2024-03-22T10:23:46;13.90;99.90
8778;DHT22;4425;50.872;4.712;2024-03-22T10:26:14;13.90;99.90
8778;DHT22;4425;50.872;4.712;2024-03-22T10:28:44;14.00;99.90
8778;DHT22;4425;50.872;4.712;2024-03-22T10:31:12;14.00;99.90
8778;DHT22;4425;50.872;4.712;2024-03-22T10:33:38;14.00;99.90
8778;DHT22;4425;50.872;4.712;2024-03-22T10:36:07;14.10;99.90
8778;DHT22;4425;50.872;4.712;2024-03-22T10:38:34;14.20;99.90
8778;DHT22;4425;50.872;4.712;2024-03-22T10:41:04;14.20;99.90
8778;DHT22;4425;50.872;4.712;2024-03-22T10:43:30;14.20;99.90
8778;DHT22;4425;50.872;4.712;2024-03-22T10:46:01;14.20;99.90
8778;DHT22;4425;50.872;4.712;2024-03-22T10:48:30;14.20;99.90
8778;DHT22;4425;50.872;4.712;2024-03-22T10:50:59;14.20;99.90
8778;DHT22;4425;50.872;4.712;2024-03-22T10:53:27;14.20;99.90
8778;DHT22;4425;50.872;4.712;2024-03-22T10:55:56;14.30;99.90
8778;DHT22;4425;50.872;4.712;2024-03-22T10:58:27;14.40;99.90
8778;DHT22;4425;50.872;4.712;2024-03-22T11:00:54;14.40;99.90
8778;DHT22;4425;50.872;4.712;2024-03-22T11:03:21;14.30;99.90
8778;DHT22;4425;50.872;4.712;2024-03-22T11:05:54;14.40;99.90
8778;DHT22;4425;50.872;4.712;2024-03-22T11:08:24;14.40;99.90
8778;DHT22;4425;50.872;4.712;2024-03-22T11:10:51;14.40;99.90
8778;DHT22;4425;50.872;4.712;2024-03-22T11:13:18;14.40;99.90
8778;DHT22;4425;50.872;4.712;2024-03-22T11:15:48;14.60;99.90
8778;DHT22;4425;50.872;4.712;2024-03-22T11:18:14;14.70;99.90
8778;DHT22;4425;50.872;4.712;2024-03-22T11:20:42;14.80;99.90
8778;DHT22;4425;50.872;4.712;2024-03-22T11:23:09;14.70;99.90
8778;DHT22;4425;50.872;4.712;2024-03-22T11:25:36;14.70;99.90
8778;DHT22;4425;50.872;4.712;2024-03-22T11:28:02;14.60;99.90
8778;DHT22;4425;50.872;4.712;2024-03-22T11:30:30;14.50;99.90
8778;DHT22;4425;50.872;4.712;2024-03-22T11:33:00;14.60;99.90
8778;DHT22;4425;50.872;4.712;2024-03-22T11:35:27;14.50;99.90
8778;DHT22;4425;50.872;4.712;2024-03-22T11:37:53;14.60;99.90
8778;DHT22;4425;50.872;4.712;2024-03-22T11:40:22;14.60;99.90
8778;DHT22;4425;50.872;4.712;2024-03-22T11:42:51;14.60;99.90
8778;DHT22;4425;50.872;4.712;2024-03-22T11:45:19;14.60;99.90
8778;DHT22;4425;50.872;4.712;2024-03-22T11:47:47;14.50;99.90
8778;DHT22;4425;50.872;4.712;2024-03-22T11:50:15;14.40;99.90
8778;DHT22;4425;50.872;4.712;2024-03-22T11:52:42;14.20;99.90
8778;DHT22;4425;50.872;4.712;2024-03-22T11:55:13;14.10;99.90
8778;DHT22;4425;50.872;4.712;2024-03-22T11:57:39;14.10;99.90
8778;DHT22;4425;50.872;4.712;2024-03-22T12:00:07;14.10;99.90
8778;DHT22;4425;50.872;4.712;2024-03-22T12:02:35;14.10;99.90
8778;DHT22;4425;50.872;4.712;2024-03-22T12:05:04;14.10;99.90
8778;DHT22;4425;50.872;4.712;2024-03-22T12:07:32;14.10;99.90
8778;DHT22;4425;50.872;4.712;2024-03-22T12:09:59;13.90;99.90
8778;DHT22;4425;50.872;4.712;2024-03-22T12:12:25;14.00;99.90
8778;DHT22;4425;50.872;4.712;2024-03-22T12:14:52;14.10;99.90
8778;DHT22;4425;50.872;4.712;2024-03-22T12:17:18;14.10;99.90
8778;DHT22;4425;50.872;4.712;2024-03-22T12:19:45;14.20;99.90
8778;DHT22;4425;50.872;4.712;2024-03-22T12:22:11;14.20;99.90
8778;DHT22;4425;50.872;4.712;2024-03-22T12:24:40;14.00;99.90
8778;DHT22;4425;50.872;4.712;2024-03-22T12:27:05;13.90;99.90
8778;DHT22;4425;50.872;4.712;2024-03-22T12:29:33;14.00;99.90
8778;DHT22;4425;50.872;4.712;2024-03-22T12:31:59;14.10;99.90
8778;DHT22;4425;50.872;4.712;2024-03-22T12:34:27;14.00;99.90
8778;DHT22;4425;50.872;4.712;2024-03-22T12:36:53;13.90;99.90
8778;DHT22;4425;50.872;4.712;2024-03-22T12:39:20;14.00;99.90
8778;DHT22;4425;50.872;4.712;2024-03-22T12:41:47;14.00;99.90
8778;DHT22;4425;50.872;4.712;2024-03-22T12:44:14;14.00;99.90
8778;DHT22;4425;50.872;4.712;2024-03-22T12:46:41;13.90;99.90
8778;DHT22;4425;50.872;4.712;2024-03-22T12:49:10;13.90;99.90
8778;DHT22;4425;50.872;4.712;2024-03-22T12:51:36;13.80;99.90
8778;DHT22;4425;50.872;4.712;2024-03-22T12:54:03;13.70;99.90
8778;DHT22;4425;50.872;4.712;2024-03-22T12:56:30;13.60;99.90
8778;DHT22;4425;50.872;4.712;2024-03-22T12:58:59;13.50;99.90
8778;DHT22;4425;50.872;4.712;2024-03-22T13:01:25;13.40;99.90
8778;DHT22;4425;50.872;4.712;2024-03-22T13:03:52;13.30;99.90
8778;DHT22;4425;50.872;4.712;2024-03-22T13:06:18;13.40;99.90
8778;DHT22;4425;50.872;4.712;2024-03-22T13:08:45;13.40;99.90
8778;DHT22;4425;50.872;4.712;2024-03-22T13:11:11;13.40;99.90
8778;DHT22;4425;50.872;4.712;2024-03-22T13:13:40;13.40;99.90
8778;DHT22;4425;50.872;4.712;2024-03-22T13:16:07;13.40;99.90
8778;DHT22;4425;50.872;4.712;2024-03-22T13:18:38;13.40;99.90
8778;DHT22;4425;50.872;4.712;2024-03-22T13:21:04;13.50;99.90
8778;DHT22;4425;50.872;4.712;2024-03-22T13:23:31;13.40;99.90
8778;DHT22;4425;50.872;4.712;2024-03-22T13:25:57;13.40;99.90
8778;DHT22;4425;50.872;4.712;2024-03-22T13:28:28;13.40;99.90
8778;DHT22;4425;50.872;4.712;2024-03-22T13:30:59;13.40;99.90
8778;DHT22;4425;50.872;4.712;2024-03-22T13:33:28;13.40;99.90
8778;DHT22;4425;50.872;4.712;2024-03-22T13:35:54;13.30;99.90
8778;DHT22;4425;50.872;4.712;2024-03-22T13:38:21;13.40;99.90
8778;DHT22;4425;50.872;4.712;2024-03-22T13:40:53;13.30;99.90
8778;DHT22;4425;50.872;4.712;2024-03-22T13:43:20;13.30;99.90
8778;DHT22;4425;50.872;4.712;2024-03-22T13:45:47;13.30;99.90
8778;DHT22;4425;50.872;4.712;2024-03-22T13:48:16;13.30;99.90
8778;DHT22;4425;50.872;4.712;2024-03-22T13:50:43;13.30;99.90
8778;DHT22;4425;50.872;4.712;2024-03-22T13:53:10;13.20;99.90
8778;DHT22;4425;50.872;4.712;2024-03-22T13:55:36;13.20;99.90
8778;DHT22;4425;50.872;4.712;2024-03-22T13:58:03;13.30;99.90
8778;DHT22;4425;50.872;4.712;2024-03-22T14:00:29;13.40;99.90
8778;DHT22;4425;50.872;4.712;2024-03-22T14:02:56;13.40;99.90
8778;DHT22;4425;50.872;4.712;2024-03-22T14:05:22;13.40;99.90
8778;DHT22;4425;50.872;4.712;2024-03-22T14:07:52;13.30;99.90
8778;DHT22;4425;50.872;4.712;2024-03-22T14:10:18;13.30;99.90
8778;DHT22;4425;50.872;4.712;2024-03-22T14:12:45;13.20;99.90
8778;DHT22;4425;50.872;4.712;2024-03-22T14:15:11;13.20;99.90
8778;DHT22;4425;50.872;4.712;2024-03-22T14:17:38;13.10;99.90
8778;DHT22;4425;50.872;4.712;2024-03-22T14:20:05;13.10;99.90
8778;DHT22;4425;50.872;4.712;2024-03-22T14:22:37;13.20;99.90
8778;DHT22;4425;50.872;4.712;2024-03-22T14:25:05;13.30;99.90
8778;DHT22;4425;50.872;4.712;2024-03-22T14:27:33;13.30;99.90
8778;DHT22;4425;50.872;4.712;2024-03-22T14:30:00;13.20;99.90
8778;DHT22;4425;50.872;4.712;2024-03-22T14:32:27;13.20;99.90
8778;DHT22;4425;50.872;4.712;2024-03-22T14:34:53;13.20;99.90
8778;DHT22;4425;50.872;4.712;2024-03-22T14:37:20;13.10;99.90
8778;DHT22;4425;50.872;4.712;2024-03-22T14:39:46;13.00;99.90
8778;DHT22;4425;50.872;4.712;2024-03-22T14:42:14;13.00;99.90
8778;DHT22;4425;50.872;4.712;2024-03-22T14:44:40;13.00;99.90
8778;DHT22;4425;50.872;4.712;2024-03-22T14:47:07;13.10;99.90
8778;DHT22;4425;50.872;4.712;2024-03-22T14:49:33;13.10;99.90
8778;DHT22;4425;50.872;4.712;2024-03-22T14:52:00;13.00;99.90
8778;DHT22;4425;50.872;4.712;2024-03-22T14:54:26;13.00;99.90
8778;DHT22;4425;50.872;4.712;2024-03-22T14:56:53;13.00;99.90
8778;DHT22;4425;50.872;4.712;2024-03-22T14:59:21;12.90;99.90
8778;DHT22;4425;50.872;4.712;2024-03-22T15:01:48;13.10;99.90
8778;DHT22;4425;50.872;4.712;2024-03-22T15:04:13;13.00;99.90
8778;DHT22;4425;50.872;4.712;2024-03-22T15:06:40;12.90;99.90
8778;DHT22;4425;50.872;4.712;2024-03-22T15:09:06;12.90;99.90
8778;DHT22;4425;50.872;4.712;2024-03-22T15:11:36;12.80;99.90
8778;DHT22;4425;50.872;4.712;2024-03-22T15:14:02;12.80;99.90
8778;DHT22;4425;50.872;4.712;2024-03-22T15:16:31;12.80;99.90
8778;DHT22;4425;50.872;4.712;2024-03-22T15:18:56;12.80;99.90
8778;DHT22;4425;50.872;4.712;2024-03-22T15:21:29;12.80;99.90
8778;DHT22;4425;50.872;4.712;2024-03-22T15:23:55;12.90;99.90
8778;DHT22;4425;50.872;4.712;2024-03-22T15:26:21;13.00;99.90
8778;DHT22;4425;50.872;4.712;2024-03-22T15:28:47;13.00;99.90
8778;DHT22;4425;50.872;4.712;2024-03-22T15:31:15;13.00;99.90
8778;DHT22;4425;50.872;4.712;2024-03-22T15:33:42;13.00;99.90
8778;DHT22;4425;50.872;4.712;2024-03-22T15:36:10;13.00;99.90
8778;DHT22;4425;50.872;4.712;2024-03-22T15:38:36;12.90;99.90
8778;DHT22;4425;50.872;4.712;2024-03-22T15:41:03;12.80;99.90
8778;DHT22;4425;50.872;4.712;2024-03-22T15:43:29;12.70;99.90
8778;DHT22;4425;50.872;4.712;2024-03-22T15:45:56;12.70;99.90
8778;DHT22;4425;50.872;4.712;2024-03-22T15:48:22;12.80;99.90
8778;DHT22;4425;50.872;4.712;2024-03-22T15:50:51;12.70;99.90
8778;DHT22;4425;50.872;4.712;2024-03-22T15:53:17;12.60;99.90
8778;DHT22;4425;50.872;4.712;2024-03-22T15:55:44;12.60;99.90
8778;DHT22;4425;50.872;4.712;2024-03-22T15:58:10;12.60;99.90
8778;DHT22;4425;50.872;4.712;2024-03-22T16:00:37;12.50;99.90